createdAt,value
2018-01-24T00:00:48.760Z,1013.51
2018-01-24T00:01:48.642Z,1013.59
2018-01-24T00:02:48.610Z,1013.54
2018-01-24T00:03:50.331Z,1013.53
2018-01-24T00:04:48.647Z,1013.53
2018-01-24T00:05:48.549Z,1013.51
2018-01-24T00:06:50.330Z,1013.53
2018-01-24T00:07:48.470Z,1013.54
2018-01-24T00:08:50.330Z,1013.46
2018-01-24T00:09:48.413Z,1013.52
2018-01-24T00:10:48.397Z,1013.37
2018-01-24T00:11:48.406Z,1013.37
2018-01-24T00:12:48.373Z,1013.37
2018-01-24T00:13:48.315Z,1013.35
2018-01-24T00:14:48.344Z,1013.39
2018-01-24T00:15:48.253Z,1013.32
2018-01-24T00:16:48.228Z,1013.32
2018-01-24T00:17:48.258Z,1013.25
2018-01-24T00:18:49.876Z,1013.24
2018-01-24T00:19:49.832Z,1013.19
2018-01-24T00:20:48.128Z,1013.18
2018-01-24T00:21:48.094Z,1013.21
2018-01-24T00:22:48.059Z,1013.14
2018-01-24T00:23:48.032Z,1013.16
2018-01-24T00:24:48.006Z,1013.17
2018-01-24T00:25:47.972Z,1013.16
2018-01-24T00:26:47.950Z,1013.21
2018-01-24T00:27:47.922Z,1013.17
2018-01-24T00:28:47.900Z,1013.17
2018-01-24T00:29:47.871Z,1013.16
2018-01-24T00:30:47.839Z,1013.10
2018-01-24T00:31:47.819Z,1013.11
2018-01-24T00:32:47.784Z,1013.06
2018-01-24T00:33:47.759Z,1013.11
2018-01-24T00:34:47.724Z,1013.04
2018-01-24T00:35:47.698Z,1013.09
2018-01-24T00:36:49.341Z,1013.12
2018-01-24T00:37:47.641Z,1013.17
2018-01-24T00:38:47.615Z,1013.16
2018-01-24T00:39:47.592Z,1013.20
2018-01-24T00:40:47.591Z,1013.12
2018-01-24T00:41:49.336Z,1013.13
2018-01-24T00:42:47.509Z,1013.15
2018-01-24T00:43:47.481Z,1013.12
2018-01-24T00:44:49.338Z,1013.12
2018-01-24T00:45:47.439Z,1013.11
2018-01-24T00:46:47.396Z,1013.12
2018-01-24T00:47:47.368Z,1013.17
2018-01-24T00:48:47.339Z,1013.12
2018-01-24T00:49:47.311Z,1013.07
2018-01-24T00:50:47.287Z,1013.09
2018-01-24T00:51:47.269Z,1012.94
2018-01-24T00:52:48.839Z,1013.02
2018-01-24T00:53:47.253Z,1013.05
2018-01-24T00:54:47.180Z,1013.18
2018-01-24T00:55:47.149Z,1013.14
2018-01-24T00:56:47.124Z,1013.11
2018-01-24T00:57:47.100Z,1013.15
2018-01-24T00:58:47.065Z,1013.07
2018-01-24T00:59:47.046Z,1013.14
2018-01-24T01:00:47.011Z,1013.11
2018-01-24T01:01:47.004Z,1013.12
2018-01-24T01:02:46.956Z,1013.14
2018-01-24T01:03:46.927Z,1013.09
2018-01-24T01:04:46.904Z,1013.31
2018-01-24T01:05:46.872Z,1013.17
2018-01-24T01:06:46.849Z,1013.22
2018-01-24T01:07:46.820Z,1013.03
2018-01-24T01:08:46.802Z,1013.12
2018-01-24T01:09:46.769Z,1013.06
2018-01-24T01:10:46.739Z,1013.14
2018-01-24T01:11:46.712Z,1013.09
2018-01-24T01:12:46.684Z,1013.04
2018-01-24T01:13:46.658Z,1013.12
2018-01-24T01:14:46.629Z,1013.11
2018-01-24T01:15:46.598Z,1013.12
2018-01-24T01:16:46.569Z,1013.12
2018-01-24T01:17:46.540Z,1013.10
2018-01-24T01:18:46.514Z,1013.10
2018-01-24T01:19:46.487Z,1013.08
2018-01-24T01:20:46.461Z,1013.04
2018-01-24T01:21:46.435Z,1013.08
2018-01-24T01:22:46.407Z,1012.99
2018-01-24T01:23:46.381Z,1012.99
2018-01-24T01:24:46.356Z,1013.04
2018-01-24T01:25:46.330Z,1013.00
2018-01-24T01:26:46.298Z,1013.03
2018-01-24T01:27:46.271Z,1012.98
2018-01-24T01:28:46.247Z,1012.95
2018-01-24T01:29:46.221Z,1013.00
2018-01-24T01:30:46.192Z,1013.04
2018-01-24T01:31:46.159Z,1013.02
2018-01-24T01:32:46.131Z,1012.99
2018-01-24T01:33:46.102Z,1013.02
2018-01-24T01:34:46.075Z,1012.98
2018-01-24T01:35:46.048Z,1013.02
2018-01-24T01:36:46.026Z,1013.04
2018-01-24T01:37:45.993Z,1013.06
2018-01-24T01:38:45.972Z,1012.97
2018-01-24T01:39:45.947Z,1013.04
2018-01-24T01:40:45.919Z,1013.03
2018-01-24T01:41:45.892Z,1012.93
2018-01-24T01:42:45.864Z,1013.05
2018-01-24T01:43:45.836Z,1012.98
2018-01-24T01:44:45.807Z,1012.97
2018-01-24T01:45:45.785Z,1013.02
2018-01-24T01:46:45.752Z,1013.03
2018-01-24T01:47:45.718Z,1013.00
2018-01-24T01:48:45.693Z,1013.01
2018-01-24T01:49:45.663Z,1013.03
2018-01-24T01:50:45.642Z,1013.00
2018-01-24T01:51:45.621Z,1012.96
2018-01-24T01:52:45.585Z,1013.05
2018-01-24T01:53:45.558Z,1013.08
2018-01-24T01:54:45.528Z,1012.98
2018-01-24T01:55:45.501Z,1013.11
2018-01-24T01:56:45.472Z,1013.04
2018-01-24T01:57:45.444Z,1013.07
2018-01-24T01:58:47.348Z,1013.01
2018-01-24T01:59:45.400Z,1013.08
2018-01-24T02:00:45.367Z,1013.02
2018-01-24T02:01:45.334Z,1013.10
2018-01-24T02:02:45.310Z,1013.07
2018-01-24T02:03:45.284Z,1013.04
2018-01-24T02:04:45.258Z,1013.02
2018-01-24T02:05:45.230Z,1013.05
2018-01-24T02:06:45.206Z,1013.08
2018-01-24T02:07:45.175Z,1012.99
2018-01-24T02:08:45.156Z,1013.02
2018-01-24T02:09:45.119Z,1012.99
2018-01-24T02:10:45.087Z,1012.93
2018-01-24T02:11:45.061Z,1013.02
2018-01-24T02:12:45.039Z,1012.97
2018-01-24T02:13:45.012Z,1012.97
2018-01-24T02:14:44.980Z,1012.98
2018-01-24T02:15:44.954Z,1012.92
2018-01-24T02:16:44.945Z,1012.91
2018-01-24T02:17:44.901Z,1012.91
2018-01-24T02:18:44.880Z,1013.00
2018-01-24T02:19:44.851Z,1012.95
2018-01-24T02:20:44.820Z,1012.95
2018-01-24T02:21:44.793Z,1012.97
2018-01-24T02:22:44.769Z,1012.93
2018-01-24T02:23:44.737Z,1012.91
2018-01-24T02:24:44.710Z,1012.89
2018-01-24T02:25:44.682Z,1012.89
2018-01-24T02:26:44.650Z,1012.88
2018-01-24T02:27:44.628Z,1012.90
2018-01-24T02:28:44.600Z,1012.88
2018-01-24T02:29:44.569Z,1012.86
2018-01-24T02:30:44.542Z,1012.84
2018-01-24T02:31:46.352Z,1012.75
2018-01-24T02:32:44.500Z,1012.78
2018-01-24T02:33:44.464Z,1012.86
2018-01-24T02:34:44.435Z,1012.88
2018-01-24T02:35:44.410Z,1012.84
2018-01-24T02:36:44.383Z,1012.89
2018-01-24T02:37:44.355Z,1012.87
2018-01-24T02:38:44.327Z,1012.91
2018-01-24T02:39:45.856Z,1012.92
2018-01-24T02:40:44.278Z,1012.92
2018-01-24T02:41:44.251Z,1012.95
2018-01-24T02:42:44.216Z,1012.92
2018-01-24T02:43:44.190Z,1012.98
2018-01-24T02:44:44.162Z,1012.91
2018-01-24T02:45:44.134Z,1012.85
2018-01-24T02:46:44.111Z,1012.86
2018-01-24T02:47:44.080Z,1012.84
2018-01-24T02:48:44.050Z,1012.84
2018-01-24T02:49:44.026Z,1012.86
2018-01-24T02:50:44.001Z,1012.84
2018-01-24T02:51:43.976Z,1012.77
2018-01-24T02:52:43.942Z,1012.79
2018-01-24T02:53:43.914Z,1012.79
2018-01-24T02:54:43.889Z,1012.79
2018-01-24T02:55:43.860Z,1012.83
2018-01-24T02:56:43.834Z,1012.74
2018-01-24T02:57:43.807Z,1012.72
2018-01-24T02:58:43.781Z,1012.72
2018-01-24T02:59:43.758Z,1012.71
2018-01-24T03:00:43.733Z,1012.72
2018-01-24T03:01:45.359Z,1012.73
2018-01-24T03:02:43.673Z,1012.75
2018-01-24T03:03:43.649Z,1012.72
2018-01-24T03:04:43.622Z,1012.72
2018-01-24T03:05:43.593Z,1012.73
2018-01-24T03:06:43.560Z,1012.79
2018-01-24T03:07:43.532Z,1012.72
2018-01-24T03:08:43.509Z,1012.65
2018-01-24T03:09:43.485Z,1012.63
2018-01-24T03:10:43.449Z,1012.59
2018-01-24T03:11:43.428Z,1012.65
2018-01-24T03:12:43.397Z,1012.62
2018-01-24T03:13:43.372Z,1012.61
2018-01-24T03:14:43.352Z,1012.69
2018-01-24T03:15:43.322Z,1012.59
2018-01-24T03:16:43.294Z,1012.58
2018-01-24T03:17:45.862Z,1012.65
2018-01-24T03:18:43.248Z,1012.61
2018-01-24T03:19:43.212Z,1012.60
2018-01-24T03:20:43.186Z,1012.69
2018-01-24T03:21:43.158Z,1012.60
2018-01-24T03:22:43.130Z,1012.62
2018-01-24T03:23:43.099Z,1012.62
2018-01-24T03:24:43.076Z,1012.65
2018-01-24T03:25:43.045Z,1012.60
2018-01-24T03:26:43.032Z,1012.63
2018-01-24T03:27:42.987Z,1012.61
2018-01-24T03:28:42.968Z,1012.65
2018-01-24T03:29:42.937Z,1012.61
2018-01-24T03:30:42.918Z,1012.66
2018-01-24T03:31:42.898Z,1012.67
2018-01-24T03:32:42.861Z,1012.63
2018-01-24T03:33:42.830Z,1012.63
2018-01-24T03:34:42.838Z,1012.63
2018-01-24T03:35:42.777Z,1012.66
2018-01-24T03:36:42.763Z,1012.63
2018-01-24T03:37:42.721Z,1012.59
2018-01-24T03:38:42.695Z,1012.61
2018-01-24T03:39:42.669Z,1012.58
2018-01-24T03:40:42.638Z,1012.60
2018-01-24T03:41:42.610Z,1012.53
2018-01-24T03:42:42.582Z,1012.61
2018-01-24T03:43:42.560Z,1012.58
2018-01-24T03:44:42.529Z,1012.58
2018-01-24T03:45:42.502Z,1012.55
2018-01-24T03:46:42.479Z,1012.55
2018-01-24T03:47:42.449Z,1012.53
2018-01-24T03:48:42.426Z,1012.48
2018-01-24T03:49:42.398Z,1012.53
2018-01-24T03:50:42.377Z,1012.52
2018-01-24T03:51:42.351Z,1012.56
2018-01-24T03:52:42.325Z,1012.57
2018-01-24T03:53:42.290Z,1012.55
2018-01-24T03:54:42.259Z,1012.51
2018-01-24T03:55:42.232Z,1012.57
2018-01-24T03:56:42.209Z,1012.50
2018-01-24T03:57:42.177Z,1012.52
2018-01-24T03:58:42.159Z,1012.52
2018-01-24T03:59:42.144Z,1012.45
2018-01-24T04:00:42.102Z,1012.51
2018-01-24T04:01:42.074Z,1012.55
2018-01-24T04:02:42.046Z,1012.68
2018-01-24T04:03:42.018Z,1012.56
2018-01-24T04:04:41.998Z,1012.53
2018-01-24T04:05:41.964Z,1012.45
2018-01-24T04:06:41.932Z,1012.47
2018-01-24T04:07:41.911Z,1012.48
2018-01-24T04:08:41.884Z,1012.51
2018-01-24T04:09:41.856Z,1012.46
2018-01-24T04:10:41.828Z,1012.45
2018-01-24T04:11:41.803Z,1012.47
2018-01-24T04:12:41.774Z,1012.41
2018-01-24T04:13:41.750Z,1012.47
2018-01-24T04:14:43.380Z,1012.50
2018-01-24T04:15:41.705Z,1012.45
2018-01-24T04:16:41.672Z,1012.48
2018-01-24T04:17:41.639Z,1012.44
2018-01-24T04:18:41.609Z,1012.47
2018-01-24T04:19:41.601Z,1012.52
2018-01-24T04:20:41.556Z,1012.40
2018-01-24T04:21:41.529Z,1012.48
2018-01-24T04:22:41.501Z,1012.47
2018-01-24T04:23:41.475Z,1012.53
2018-01-24T04:24:43.369Z,1012.51
2018-01-24T04:25:41.424Z,1012.52
2018-01-24T04:26:41.401Z,1012.50
2018-01-24T04:27:41.375Z,1012.46
2018-01-24T04:28:41.356Z,1012.47
2018-01-24T04:29:41.315Z,1012.49
2018-01-24T04:30:41.289Z,1012.46
2018-01-24T04:31:41.264Z,1012.49
2018-01-24T04:32:41.241Z,1012.42
2018-01-24T04:33:41.210Z,1012.41
2018-01-24T04:34:41.177Z,1012.41
2018-01-24T04:35:41.151Z,1012.35
2018-01-24T04:36:41.124Z,1012.52
2018-01-24T04:37:41.098Z,1012.40
2018-01-24T04:38:41.071Z,1012.35
2018-01-24T04:39:41.042Z,1012.35
2018-01-24T04:40:42.871Z,1012.30
2018-01-24T04:41:40.988Z,1012.30
2018-01-24T04:42:40.965Z,1012.39
2018-01-24T04:43:40.943Z,1012.30
2018-01-24T04:44:40.913Z,1012.31
2018-01-24T04:45:40.887Z,1012.27
2018-01-24T04:46:40.867Z,1012.28
2018-01-24T04:47:40.832Z,1012.28
2018-01-24T04:48:40.807Z,1012.31
2018-01-24T04:49:40.783Z,1012.22
2018-01-24T04:50:40.747Z,1012.19
2018-01-24T04:51:40.719Z,1012.16
2018-01-24T04:52:40.705Z,1012.17
2018-01-24T04:53:40.668Z,1012.21
2018-01-24T04:54:40.648Z,1012.21
2018-01-24T04:55:40.612Z,1012.20
2018-01-24T04:56:40.586Z,1012.25
2018-01-24T04:57:40.558Z,1012.21
2018-01-24T04:58:40.544Z,1012.19
2018-01-24T04:59:40.515Z,1012.26
2018-01-24T05:00:40.481Z,1012.22
2018-01-24T05:01:40.458Z,1012.16
2018-01-24T05:02:40.426Z,1012.19
2018-01-24T05:03:40.408Z,1012.19
2018-01-24T05:04:40.382Z,1012.18
2018-01-24T05:05:40.346Z,1012.17
2018-01-24T05:06:42.877Z,1012.17
2018-01-24T05:07:40.298Z,1012.18
2018-01-24T05:08:40.271Z,1012.19
2018-01-24T05:09:40.240Z,1012.15
2018-01-24T05:10:40.215Z,1012.17
2018-01-24T05:11:40.187Z,1012.14
2018-01-24T05:12:40.166Z,1012.14
2018-01-24T05:13:40.140Z,1012.17
2018-01-24T05:14:40.105Z,1012.13
2018-01-24T05:15:40.076Z,1012.16
2018-01-24T05:16:40.051Z,1012.08
2018-01-24T05:17:40.025Z,1012.14
2018-01-24T05:18:40.004Z,1012.07
2018-01-24T05:19:39.970Z,1012.03
2018-01-24T05:20:39.962Z,1012.11
2018-01-24T05:21:39.921Z,1012.15
2018-01-24T05:22:39.890Z,1012.13
2018-01-24T05:23:39.864Z,1012.13
2018-01-24T05:24:39.838Z,1012.13
2018-01-24T05:25:39.812Z,1012.09
2018-01-24T05:26:39.784Z,1012.14
2018-01-24T05:27:39.761Z,1012.11
2018-01-24T05:28:39.731Z,1012.10
2018-01-24T05:29:39.704Z,1012.13
2018-01-24T05:30:39.673Z,1012.15
2018-01-24T05:31:39.646Z,1012.11
2018-01-24T05:32:39.620Z,1012.09
2018-01-24T05:33:39.594Z,1012.14
2018-01-24T05:34:39.565Z,1012.13
2018-01-24T05:35:39.538Z,1012.08
2018-01-24T05:36:39.515Z,1012.14
2018-01-24T05:37:39.488Z,1012.12
2018-01-24T05:38:42.393Z,1012.16
2018-01-24T05:39:39.437Z,1012.18
2018-01-24T05:40:42.383Z,1012.10
2018-01-24T05:41:39.384Z,1012.11
2018-01-24T05:42:39.354Z,1012.12
2018-01-24T05:43:39.333Z,1012.13
2018-01-24T05:44:39.305Z,1012.09
2018-01-24T05:45:39.273Z,1012.07
2018-01-24T05:46:39.248Z,1012.06
2018-01-24T05:47:39.217Z,1012.06
2018-01-24T05:48:39.191Z,1012.05
2018-01-24T05:49:39.162Z,1012.11
2018-01-24T05:50:39.136Z,1012.02
2018-01-24T05:51:39.110Z,1012.01
2018-01-24T05:52:39.085Z,1012.04
2018-01-24T05:53:39.061Z,1012.02
2018-01-24T05:54:39.035Z,1012.01
2018-01-24T05:55:39.008Z,1012.00
2018-01-24T05:56:38.984Z,1012.03
2018-01-24T05:57:38.951Z,1012.09
2018-01-24T05:58:38.929Z,1012.03
2018-01-24T05:59:38.900Z,1012.03
2018-01-24T06:00:38.873Z,1012.04
2018-01-24T06:01:38.849Z,1011.96
2018-01-24T06:02:38.816Z,1012.00
2018-01-24T06:03:38.795Z,1011.98
2018-01-24T06:04:38.766Z,1012.00
2018-01-24T06:05:38.740Z,1012.00
2018-01-24T06:06:38.713Z,1012.07
2018-01-24T06:07:38.688Z,1012.15
2018-01-24T06:08:38.659Z,1012.00
2018-01-24T06:09:38.633Z,1012.06
2018-01-24T06:10:38.602Z,1012.02
2018-01-24T06:11:38.575Z,1012.06
2018-01-24T06:12:38.548Z,1012.04
2018-01-24T06:13:38.521Z,1011.99
2018-01-24T06:14:38.497Z,1012.07
2018-01-24T06:15:38.473Z,1012.01
2018-01-24T06:16:38.439Z,1012.11
2018-01-24T06:17:38.413Z,1012.03
2018-01-24T06:18:38.397Z,1012.10
2018-01-24T06:19:38.366Z,1012.04
2018-01-24T06:20:40.891Z,1012.07
2018-01-24T06:21:38.315Z,1012.05
2018-01-24T06:22:38.284Z,1012.04
2018-01-24T06:23:38.256Z,1012.03
2018-01-24T06:24:38.237Z,1012.01
2018-01-24T06:25:38.206Z,1011.82
2018-01-24T06:26:38.178Z,1011.98
2018-01-24T06:27:38.146Z,1011.95
2018-01-24T06:28:38.119Z,1011.98
2018-01-24T06:29:39.898Z,1011.95
2018-01-24T06:30:38.084Z,1011.98
2018-01-24T06:31:38.041Z,1011.92
2018-01-24T06:32:38.023Z,1011.93
2018-01-24T06:33:39.890Z,1011.94
2018-01-24T06:34:37.971Z,1011.90
2018-01-24T06:35:37.946Z,1011.92
2018-01-24T06:36:37.916Z,1011.84
2018-01-24T06:37:37.881Z,1011.92
2018-01-24T06:38:37.855Z,1011.93
2018-01-24T06:39:37.828Z,1011.85
2018-01-24T06:40:37.801Z,1011.87
2018-01-24T06:41:37.775Z,1011.85
2018-01-24T06:42:37.743Z,1011.90
2018-01-24T06:43:37.716Z,1011.80
2018-01-24T06:44:39.436Z,1011.94
2018-01-24T06:45:37.667Z,1011.84
2018-01-24T06:46:37.646Z,1011.90
2018-01-24T06:47:37.618Z,1011.99
2018-01-24T06:48:37.584Z,1011.93
2018-01-24T06:49:37.562Z,1011.89
2018-01-24T06:50:37.542Z,1011.93
2018-01-24T06:51:37.513Z,1011.97
2018-01-24T06:52:37.484Z,1012.01
2018-01-24T06:53:37.459Z,1011.96
2018-01-24T06:54:37.433Z,1011.88
2018-01-24T06:55:37.420Z,1012.00
2018-01-24T06:56:37.372Z,1011.96
2018-01-24T06:57:37.346Z,1012.00
2018-01-24T06:58:37.424Z,1011.91
2018-01-24T06:59:37.289Z,1011.88
2018-01-24T07:00:37.265Z,1011.91
2018-01-24T07:01:37.235Z,1011.99
2018-01-24T07:02:37.216Z,1011.98
2018-01-24T07:03:39.895Z,1011.95
2018-01-24T07:04:37.161Z,1012.04
2018-01-24T07:05:38.895Z,1011.98
2018-01-24T07:06:37.104Z,1011.98
2018-01-24T07:07:37.080Z,1011.90
2018-01-24T07:08:37.066Z,1012.01
2018-01-24T07:09:39.915Z,1012.00
2018-01-24T07:10:38.896Z,1011.85
2018-01-24T07:11:37.004Z,1011.90
2018-01-24T07:12:36.945Z,1011.89
2018-01-24T07:13:36.938Z,1011.89
2018-01-24T07:14:36.893Z,1011.86
2018-01-24T07:15:36.870Z,1011.81
2018-01-24T07:16:36.841Z,1011.84
2018-01-24T07:17:36.814Z,1011.91
2018-01-24T07:18:36.785Z,1011.87
2018-01-24T07:19:36.761Z,1011.86
2018-01-24T07:20:36.736Z,1011.80
2018-01-24T07:21:36.709Z,1011.90
2018-01-24T07:22:36.723Z,1011.72
2018-01-24T07:23:36.650Z,1011.68
2018-01-24T07:24:36.621Z,1011.76
2018-01-24T07:25:36.592Z,1011.71
2018-01-24T07:26:36.572Z,1011.81
2018-01-24T07:27:36.543Z,1011.77
2018-01-24T07:28:36.515Z,1011.70
2018-01-24T07:29:36.487Z,1011.81
2018-01-24T07:30:36.469Z,1011.77
2018-01-24T07:31:36.462Z,1011.75
2018-01-24T07:32:36.417Z,1011.81
2018-01-24T07:33:36.440Z,1011.83
2018-01-24T07:34:36.358Z,1011.89
2018-01-24T07:35:37.912Z,1011.81
2018-01-24T07:36:37.902Z,1011.89
2018-01-24T07:37:36.285Z,1011.89
2018-01-24T07:38:36.249Z,1011.85
2018-01-24T07:39:36.225Z,1011.78
2018-01-24T07:40:36.200Z,1011.79
2018-01-24T07:41:36.166Z,1011.74
2018-01-24T07:42:36.139Z,1011.65
2018-01-24T07:43:36.122Z,1011.72
2018-01-24T07:44:36.089Z,1011.75
2018-01-24T07:45:36.060Z,1011.68
2018-01-24T07:46:36.045Z,1011.95
2018-01-24T07:47:36.011Z,1011.64
2018-01-24T07:48:35.990Z,1011.63
2018-01-24T07:49:35.961Z,1011.63
2018-01-24T07:50:35.941Z,1011.62
2018-01-24T07:51:35.915Z,1011.66
2018-01-24T07:52:35.908Z,1011.64
2018-01-24T07:53:35.858Z,1011.63
2018-01-24T07:54:35.824Z,1011.62
2018-01-24T07:55:35.802Z,1011.60
2018-01-24T07:56:35.801Z,1011.68
2018-01-24T07:57:35.755Z,1011.59
2018-01-24T07:58:35.726Z,1011.60
2018-01-24T07:59:35.687Z,1011.61
2018-01-24T08:00:35.670Z,1011.61
2018-01-24T08:01:35.635Z,1011.56
2018-01-24T08:02:35.612Z,1011.58
2018-01-24T08:03:35.588Z,1011.63
2018-01-24T08:04:35.561Z,1011.59
2018-01-24T08:05:35.542Z,1011.57
2018-01-24T08:06:35.504Z,1011.68
2018-01-24T08:07:35.479Z,1011.61
2018-01-24T08:08:35.457Z,1011.60
2018-01-24T08:09:35.430Z,1011.54
2018-01-24T08:10:35.396Z,1011.58
2018-01-24T08:11:35.374Z,1011.53
2018-01-24T08:12:35.385Z,1011.52
2018-01-24T08:13:35.317Z,1011.54
2018-01-24T08:14:35.296Z,1011.42
2018-01-24T08:15:35.268Z,1011.44
2018-01-24T08:16:35.248Z,1011.42
2018-01-24T08:17:35.213Z,1011.47
2018-01-24T08:18:35.183Z,1011.45
2018-01-24T08:19:35.156Z,1011.45
2018-01-24T08:20:35.133Z,1011.45
2018-01-24T08:21:35.103Z,1011.44
2018-01-24T08:22:35.083Z,1011.42
2018-01-24T08:23:35.060Z,1011.39
2018-01-24T08:24:35.053Z,1011.41
2018-01-24T08:25:34.996Z,1011.41
2018-01-24T08:26:34.974Z,1011.42
2018-01-24T08:27:37.911Z,1011.45
2018-01-24T08:28:34.925Z,1011.35
2018-01-24T08:29:34.894Z,1011.40
2018-01-24T08:30:34.876Z,1011.39
2018-01-24T08:31:34.844Z,1011.33
2018-01-24T08:32:34.822Z,1011.36
2018-01-24T08:33:34.793Z,1011.32
2018-01-24T08:34:36.426Z,1011.34
2018-01-24T08:35:36.410Z,1011.28
2018-01-24T08:36:34.720Z,1011.41
2018-01-24T08:37:34.677Z,1011.36
2018-01-24T08:38:34.655Z,1011.31
2018-01-24T08:39:34.632Z,1011.23
2018-01-24T08:40:34.601Z,1011.32
2018-01-24T08:41:36.411Z,1011.35
2018-01-24T08:42:34.551Z,1011.36
2018-01-24T08:43:37.010Z,1011.29
2018-01-24T08:44:34.499Z,1011.32
2018-01-24T08:45:34.472Z,1011.32
2018-01-24T08:46:34.448Z,1011.28
2018-01-24T08:47:34.419Z,1011.29
2018-01-24T08:48:34.414Z,1011.31
2018-01-24T08:49:34.371Z,1011.22
2018-01-24T08:50:34.336Z,1011.30
2018-01-24T08:51:34.321Z,1011.32
2018-01-24T08:52:34.285Z,1011.27
2018-01-24T08:53:34.257Z,1011.30
2018-01-24T08:54:34.233Z,1011.28
2018-01-24T08:55:34.203Z,1011.27
2018-01-24T08:56:35.942Z,1011.31
2018-01-24T08:57:34.162Z,1011.31
2018-01-24T08:58:34.136Z,1011.32
2018-01-24T08:59:34.109Z,1011.38
2018-01-24T09:00:34.078Z,1011.30
2018-01-24T09:01:34.049Z,1011.30
2018-01-24T09:02:34.031Z,1011.35
2018-01-24T09:03:34.001Z,1011.29
2018-01-24T09:04:33.973Z,1011.29
2018-01-24T09:05:33.950Z,1011.25
2018-01-24T09:06:33.915Z,1011.27
2018-01-24T09:07:33.890Z,1011.24
2018-01-24T09:08:33.863Z,1011.20
2018-01-24T09:09:33.848Z,1011.19
2018-01-24T09:10:33.814Z,1011.23
2018-01-24T09:11:33.784Z,1011.22
2018-01-24T09:12:33.757Z,1011.25
2018-01-24T09:13:33.731Z,1011.24
2018-01-24T09:14:33.711Z,1011.24
2018-01-24T09:15:35.418Z,1011.15
2018-01-24T09:16:33.658Z,1011.16
2018-01-24T09:17:33.628Z,1011.20
2018-01-24T09:18:33.599Z,1011.11
2018-01-24T09:19:33.572Z,1011.10
2018-01-24T09:20:33.546Z,1011.14
2018-01-24T09:21:33.521Z,1011.05
2018-01-24T09:22:33.496Z,1011.05
2018-01-24T09:23:33.475Z,1011.09
2018-01-24T09:24:33.457Z,1011.12
2018-01-24T09:25:33.419Z,1010.99
2018-01-24T09:26:33.400Z,1011.15
2018-01-24T09:27:33.388Z,1011.03
2018-01-24T09:28:33.347Z,1010.96
2018-01-24T09:29:33.315Z,1010.99
2018-01-24T09:30:33.284Z,1010.96
2018-01-24T09:31:33.260Z,1011.07
2018-01-24T09:32:33.233Z,1011.02
2018-01-24T09:33:33.261Z,1010.95
2018-01-24T09:34:33.194Z,1010.90
2018-01-24T09:35:33.160Z,1010.95
2018-01-24T09:36:33.128Z,1010.90
2018-01-24T09:37:33.106Z,1010.86
2018-01-24T09:38:33.080Z,1010.87
2018-01-24T09:39:33.054Z,1010.87
2018-01-24T09:40:33.026Z,1010.91
2018-01-24T09:41:33.008Z,1010.96
2018-01-24T09:42:32.982Z,1010.96
2018-01-24T09:43:32.952Z,1010.91
2018-01-24T09:44:32.923Z,1010.96
2018-01-24T09:45:32.897Z,1010.84
2018-01-24T09:46:32.868Z,1010.81
2018-01-24T09:47:32.840Z,1010.86
2018-01-24T09:48:32.815Z,1010.96
2018-01-24T09:49:32.788Z,1010.87
2018-01-24T09:50:32.769Z,1010.83
2018-01-24T09:51:32.737Z,1010.85
2018-01-24T09:52:32.715Z,1010.87
2018-01-24T09:53:32.685Z,1010.88
2018-01-24T09:54:32.665Z,1010.87
2018-01-24T09:55:32.638Z,1010.84
2018-01-24T09:56:32.616Z,1010.93
2018-01-24T09:57:32.592Z,1010.79
2018-01-24T09:58:32.561Z,1010.74
2018-01-24T09:59:32.539Z,1010.83
2018-01-24T10:00:32.513Z,1010.85
2018-01-24T10:01:32.488Z,1010.84
2018-01-24T10:02:32.458Z,1010.83
2018-01-24T10:03:32.429Z,1010.76
2018-01-24T10:04:32.407Z,1010.71
2018-01-24T10:05:32.473Z,1010.71
2018-01-24T10:06:32.422Z,1010.70
2018-01-24T10:07:32.329Z,1010.70
2018-01-24T10:08:32.307Z,1010.67
2018-01-24T10:09:33.926Z,1010.70
2018-01-24T10:10:32.254Z,1010.69
2018-01-24T10:11:32.227Z,1010.72
2018-01-24T10:12:32.209Z,1010.59
2018-01-24T10:13:32.178Z,1010.60
2018-01-24T10:14:32.153Z,1010.61
2018-01-24T10:15:32.126Z,1010.61
2018-01-24T10:16:32.104Z,1010.63
2018-01-24T10:17:32.075Z,1010.58
2018-01-24T10:18:32.050Z,1010.56
2018-01-24T10:19:32.021Z,1010.56
2018-01-24T10:20:32.004Z,1010.56
2018-01-24T10:21:32.010Z,1010.49
2018-01-24T10:22:31.947Z,1010.52
2018-01-24T10:23:31.921Z,1010.58
2018-01-24T10:24:31.896Z,1010.57
2018-01-24T10:25:31.904Z,1010.53
2018-01-24T10:26:31.840Z,1010.49
2018-01-24T10:27:31.815Z,1010.48
2018-01-24T10:28:31.788Z,1010.46
2018-01-24T10:29:31.766Z,1010.49
2018-01-24T10:30:31.741Z,1010.44
2018-01-24T10:31:31.711Z,1010.38
2018-01-24T10:32:31.690Z,1010.41
2018-01-24T10:33:31.663Z,1010.41
2018-01-24T10:34:31.641Z,1010.32
2018-01-24T10:35:31.613Z,1010.32
2018-01-24T10:36:31.594Z,1010.40
2018-01-24T10:37:31.567Z,1010.36
2018-01-24T10:38:31.542Z,1010.35
2018-01-24T10:39:31.511Z,1010.32
2018-01-24T10:40:31.491Z,1010.25
2018-01-24T10:41:31.461Z,1010.17
2018-01-24T10:42:31.439Z,1010.22
2018-01-24T10:43:31.417Z,1010.19
2018-01-24T10:44:31.391Z,1010.19
2018-01-24T10:45:31.357Z,1010.12
2018-01-24T10:46:31.331Z,1010.15
2018-01-24T10:47:31.306Z,1010.04
2018-01-24T10:48:31.278Z,1010.07
2018-01-24T10:49:31.254Z,1010.03
2018-01-24T10:50:31.232Z,1010.07
2018-01-24T10:51:31.209Z,1009.98
2018-01-24T10:52:32.945Z,1010.03
2018-01-24T10:53:31.154Z,1009.93
2018-01-24T10:54:31.154Z,1009.99
2018-01-24T10:55:31.110Z,1009.93
2018-01-24T10:56:31.085Z,1009.81
2018-01-24T10:57:31.057Z,1009.86
2018-01-24T10:58:31.026Z,1009.87
2018-01-24T10:59:31.002Z,1009.86
2018-01-24T11:00:30.993Z,1009.76
2018-01-24T11:01:30.954Z,1009.92
2018-01-24T11:02:30.925Z,1009.77
2018-01-24T11:03:30.904Z,1009.79
2018-01-24T11:04:30.881Z,1009.69
2018-01-24T11:05:30.859Z,1009.77
2018-01-24T11:06:30.829Z,1009.78
2018-01-24T11:07:30.821Z,1009.81
2018-01-24T11:08:30.778Z,1009.66
2018-01-24T11:09:30.760Z,1009.68
2018-01-24T11:10:30.728Z,1009.67
2018-01-24T11:11:30.708Z,1009.67
2018-01-24T11:12:32.439Z,1009.74
2018-01-24T11:13:30.659Z,1009.64
2018-01-24T11:14:30.699Z,1009.63
2018-01-24T11:15:30.599Z,1009.70
2018-01-24T11:16:30.578Z,1009.55
2018-01-24T11:17:31.548Z,1009.62
2018-01-24T11:18:30.536Z,1009.54
2018-01-24T11:19:30.504Z,1009.53
2018-01-24T11:20:32.439Z,1009.52
2018-01-24T11:21:30.453Z,1009.44
2018-01-24T11:22:30.435Z,1009.41
2018-01-24T11:23:30.409Z,1009.32
2018-01-24T11:24:30.379Z,1009.34
2018-01-24T11:25:30.352Z,1009.31
2018-01-24T11:26:30.332Z,1009.38
2018-01-24T11:27:30.303Z,1009.34
2018-01-24T11:28:30.279Z,1009.25
2018-01-24T11:29:30.253Z,1009.25
2018-01-24T11:30:30.228Z,1009.22
2018-01-24T11:31:30.200Z,1009.20
2018-01-24T11:32:30.179Z,1009.17
2018-01-24T11:33:30.149Z,1009.16
2018-01-24T11:34:30.147Z,1009.18
2018-01-24T11:35:30.103Z,1009.11
2018-01-24T11:36:30.077Z,1009.15
2018-01-24T11:37:30.054Z,1009.04
2018-01-24T11:38:30.034Z,1009.04
2018-01-24T11:39:30.041Z,1009.04
2018-01-24T11:40:29.987Z,1009.02
2018-01-24T11:41:29.960Z,1008.97
2018-01-24T11:42:29.939Z,1009.03
2018-01-24T11:43:31.449Z,1008.98
2018-01-24T11:44:29.892Z,1009.02
2018-01-24T11:45:29.859Z,1009.08
2018-01-24T11:46:29.832Z,1009.03
2018-01-24T11:47:29.816Z,1009.00
2018-01-24T11:48:29.784Z,1009.04
2018-01-24T11:49:29.760Z,1008.86
2018-01-24T11:50:31.454Z,1009.05
2018-01-24T11:51:29.712Z,1008.76
2018-01-24T11:52:29.688Z,1008.89
2018-01-24T11:53:29.662Z,1008.84
2018-01-24T11:54:29.640Z,1008.78
2018-01-24T11:55:29.615Z,1008.79
2018-01-24T11:56:29.592Z,1008.82
2018-01-24T11:57:29.569Z,1008.86
2018-01-24T11:58:29.543Z,1008.77
2018-01-24T11:59:29.571Z,1008.88
2018-01-24T12:00:29.502Z,1008.70
2018-01-24T12:01:29.474Z,1008.69
2018-01-24T12:02:29.449Z,1008.68
2018-01-24T12:03:29.419Z,1008.80
2018-01-24T12:04:29.399Z,1008.54
2018-01-24T12:05:29.371Z,1008.63